sensor_id;sensor_type;location;lat;lon;timestamp;temperature;humidity
14511;DHT22;7341;50.930;4.038;2023-02-01T00:01:32;7.80;99.90
14511;DHT22;7341;50.930;4.038;2023-02-01T00:04:00;7.70;99.90
14511;DHT22;7341;50.930;4.038;2023-02-01T00:06:26;7.70;99.90
14511;DHT22;7341;50.930;4.038;2023-02-01T00:08:56;7.80;99.90
14511;DHT22;7341;50.930;4.038;2023-02-01T00:11:24;7.80;99.90
14511;DHT22;7341;50.930;4.038;2023-02-01T00:13:59;7.80;99.90
14511;DHT22;7341;50.930;4.038;2023-02-01T00:16:29;7.90;99.90
14511;DHT22;7341;50.930;4.038;2023-02-01T00:18:58;7.90;99.90
14511;DHT22;7341;50.930;4.038;2023-02-01T00:21:27;7.90;99.90
14511;DHT22;7341;50.930;4.038;2023-02-01T00:23:58;7.90;99.90
14511;DHT22;7341;50.930;4.038;2023-02-01T00:26:31;7.90;99.90
14511;DHT22;7341;50.930;4.038;2023-02-01T00:29:01;7.90;99.90
14511;DHT22;7341;50.930;4.038;2023-02-01T00:31:30;7.80;99.90
14511;DHT22;7341;50.930;4.038;2023-02-01T00:33:57;7.80;99.90
14511;DHT22;7341;50.930;4.038;2023-02-01T00:36:24;7.80;99.90
14511;DHT22;7341;50.930;4.038;2023-02-01T00:38:51;7.80;99.90
14511;DHT22;7341;50.930;4.038;2023-02-01T00:41:21;7.80;99.90
14511;DHT22;7341;50.930;4.038;2023-02-01T00:43:49;7.80;99.90
14511;DHT22;7341;50.930;4.038;2023-02-01T00:46:19;7.80;99.90
14511;DHT22;7341;50.930;4.038;2023-02-01T00:48:51;7.90;99.90
14511;DHT22;7341;50.930;4.038;2023-02-01T00:51:20;7.80;99.90
14511;DHT22;7341;50.930;4.038;2023-02-01T00:53:48;7.70;99.90
14511;DHT22;7341;50.930;4.038;2023-02-01T00:56:16;7.60;99.90
14511;DHT22;7341;50.930;4.038;2023-02-01T00:58:43;7.50;99.90
14511;DHT22;7341;50.930;4.038;2023-02-01T01:01:14;7.50;99.90
14511;DHT22;7341;50.930;4.038;2023-02-01T01:03:44;7.50;99.90
14511;DHT22;7341;50.930;4.038;2023-02-01T01:06:13;7.50;99.90
14511;DHT22;7341;50.930;4.038;2023-02-01T01:08:47;7.50;99.90
14511;DHT22;7341;50.930;4.038;2023-02-01T01:11:16;7.50;99.90
14511;DHT22;7341;50.930;4.038;2023-02-01T01:13:46;7.40;99.90
14511;DHT22;7341;50.930;4.038;2023-02-01T01:16:13;7.40;99.90
14511;DHT22;7341;50.930;4.038;2023-02-01T01:18:40;7.40;99.90
14511;DHT22;7341;50.930;4.038;2023-02-01T01:21:11;7.30;99.90
14511;DHT22;7341;50.930;4.038;2023-02-01T01:23:38;7.30;99.90
14511;DHT22;7341;50.930;4.038;2023-02-01T01:26:06;7.40;99.90
14511;DHT22;7341;50.930;4.038;2023-02-01T01:28:33;7.20;99.90
14511;DHT22;7341;50.930;4.038;2023-02-01T01:31:00;7.30;99.90
14511;DHT22;7341;50.930;4.038;2023-02-01T01:33:27;7.20;99.90
14511;DHT22;7341;50.930;4.038;2023-02-01T01:35:55;7.20;99.90
14511;DHT22;7341;50.930;4.038;2023-02-01T01:38:25;7.10;99.90
14511;DHT22;7341;50.930;4.038;2023-02-01T01:40:52;7.10;99.90
14511;DHT22;7341;50.930;4.038;2023-02-01T01:43:20;6.90;99.90
14511;DHT22;7341;50.930;4.038;2023-02-01T01:45:50;6.90;99.90
14511;DHT22;7341;50.930;4.038;2023-02-01T01:48:23;7.00;99.90
14511;DHT22;7341;50.930;4.038;2023-02-01T01:50:57;6.90;99.90
14511;DHT22;7341;50.930;4.038;2023-02-01T01:53:31;6.90;99.90
14511;DHT22;7341;50.930;4.038;2023-02-01T01:56:01;6.70;99.90
14511;DHT22;7341;50.930;4.038;2023-02-01T01:58:29;6.70;99.90
14511;DHT22;7341;50.930;4.038;2023-02-01T02:00:59;6.70;99.90
14511;DHT22;7341;50.930;4.038;2023-02-01T02:03:30;6.60;99.90
14511;DHT22;7341;50.930;4.038;2023-02-01T02:06:02;6.50;99.90
14511;DHT22;7341;50.930;4.038;2023-02-01T02:08:31;6.60;99.90
14511;DHT22;7341;50.930;4.038;2023-02-01T02:10:57;6.60;99.90
14511;DHT22;7341;50.930;4.038;2023-02-01T02:13:31;6.70;99.90
14511;DHT22;7341;50.930;4.038;2023-02-01T02:16:23;6.70;99.90
14511;DHT22;7341;50.930;4.038;2023-02-01T02:19:07;6.70;99.90
14511;DHT22;7341;50.930;4.038;2023-02-01T02:21:52;6.70;99.90
14511;DHT22;7341;50.930;4.038;2023-02-01T02:25:00;6.70;99.90
14511;DHT22;7341;50.930;4.038;2023-02-01T02:27:40;6.80;99.90
14511;DHT22;7341;50.930;4.038;2023-02-01T02:30:34;6.80;99.90
14511;DHT22;7341;50.930;4.038;2023-02-01T02:36:30;6.90;99.90
14511;DHT22;7341;50.930;4.038;2023-02-01T02:39:05;6.70;99.90
14511;DHT22;7341;50.930;4.038;2023-02-01T02:41:41;6.70;99.90
14511;DHT22;7341;50.930;4.038;2023-02-01T02:44:37;6.60;99.90
14511;DHT22;7341;50.930;4.038;2023-02-01T02:47:27;6.70;99.90
14511;DHT22;7341;50.930;4.038;2023-02-01T02:50:09;6.70;99.90
14511;DHT22;7341;50.930;4.038;2023-02-01T02:53:01;6.70;99.90
14511;DHT22;7341;50.930;4.038;2023-02-01T02:56:05;6.60;99.90
14511;DHT22;7341;50.930;4.038;2023-02-01T02:58:53;6.70;99.90
14511;DHT22;7341;50.930;4.038;2023-02-01T03:01:40;6.70;99.90
14511;DHT22;7341;50.930;4.038;2023-02-01T03:04:25;6.70;99.90
14511;DHT22;7341;50.930;4.038;2023-02-01T03:06:53;6.70;99.90
14511;DHT22;7341;50.930;4.038;2023-02-01T03:09:23;6.70;99.90
14511;DHT22;7341;50.930;4.038;2023-02-01T03:11:58;6.60;99.90
14511;DHT22;7341;50.930;4.038;2023-02-01T03:14:48;6.70;99.90
14511;DHT22;7341;50.930;4.038;2023-02-01T03:17:21;6.70;99.90
14511;DHT22;7341;50.930;4.038;2023-02-01T03:19:51;6.70;99.90
14511;DHT22;7341;50.930;4.038;2023-02-01T03:22:24;6.70;99.90
14511;DHT22;7341;50.930;4.038;2023-02-01T03:25:00;6.70;99.90
14511;DHT22;7341;50.930;4.038;2023-02-01T03:27:35;6.70;99.90
14511;DHT22;7341;50.930;4.038;2023-02-01T03:30:07;6.60;99.90
14511;DHT22;7341;50.930;4.038;2023-02-01T03:32:38;6.60;99.90
14511;DHT22;7341;50.930;4.038;2023-02-01T03:35:25;6.60;99.90
14511;DHT22;7341;50.930;4.038;2023-02-01T03:38:03;6.60;99.90
14511;DHT22;7341;50.930;4.038;2023-02-01T03:40:33;6.60;99.90
14511;DHT22;7341;50.930;4.038;2023-02-01T03:43:05;6.60;99.90
14511;DHT22;7341;50.930;4.038;2023-02-01T03:45:38;6.70;99.90
14511;DHT22;7341;50.930;4.038;2023-02-01T03:48:08;6.70;99.90
14511;DHT22;7341;50.930;4.038;2023-02-01T03:50:37;6.70;99.90
14511;DHT22;7341;50.930;4.038;2023-02-01T03:53:09;6.60;99.90
14511;DHT22;7341;50.930;4.038;2023-02-01T03:55:39;6.50;99.90
14511;DHT22;7341;50.930;4.038;2023-02-01T03:58:11;6.50;99.90
14511;DHT22;7341;50.930;4.038;2023-02-01T04:00:40;6.50;99.90
14511;DHT22;7341;50.930;4.038;2023-02-01T04:03:12;6.50;99.90
14511;DHT22;7341;50.930;4.038;2023-02-01T04:05:42;6.40;99.90
14511;DHT22;7341;50.930;4.038;2023-02-01T04:08:10;6.40;99.90
14511;DHT22;7341;50.930;4.038;2023-02-01T04:10:38;6.40;99.90
14511;DHT22;7341;50.930;4.038;2023-02-01T04:13:08;6.30;99.90
14511;DHT22;7341;50.930;4.038;2023-02-01T04:15:37;6.30;99.90
14511;DHT22;7341;50.930;4.038;2023-02-01T04:18:06;6.30;99.90
14511;DHT22;7341;50.930;4.038;2023-02-01T04:20:36;6.20;99.90
14511;DHT22;7341;50.930;4.038;2023-02-01T04:23:04;6.30;99.90
14511;DHT22;7341;50.930;4.038;2023-02-01T04:25:35;6.20;99.90
14511;DHT22;7341;50.930;4.038;2023-02-01T04:28:03;6.20;99.90
14511;DHT22;7341;50.930;4.038;2023-02-01T04:30:31;6.20;99.90
14511;DHT22;7341;50.930;4.038;2023-02-01T04:32:58;6.20;99.90
14511;DHT22;7341;50.930;4.038;2023-02-01T04:35:25;6.20;99.90
14511;DHT22;7341;50.930;4.038;2023-02-01T04:37:51;6.10;99.90
14511;DHT22;7341;50.930;4.038;2023-02-01T04:40:19;6.10;99.90
14511;DHT22;7341;50.930;4.038;2023-02-01T04:42:49;6.20;99.90
14511;DHT22;7341;50.930;4.038;2023-02-01T04:45:22;6.10;99.90
14511;DHT22;7341;50.930;4.038;2023-02-01T04:47:51;6.10;99.90
14511;DHT22;7341;50.930;4.038;2023-02-01T04:50:20;6.10;99.90
14511;DHT22;7341;50.930;4.038;2023-02-01T04:52:54;6.00;99.90
14511;DHT22;7341;50.930;4.038;2023-02-01T04:55:22;6.10;99.90
14511;DHT22;7341;50.930;4.038;2023-02-01T04:57:50;6.00;99.90
14511;DHT22;7341;50.930;4.038;2023-02-01T05:00:19;6.00;99.90
14511;DHT22;7341;50.930;4.038;2023-02-01T05:02:45;6.00;99.90
14511;DHT22;7341;50.930;4.038;2023-02-01T05:05:13;6.00;99.90
14511;DHT22;7341;50.930;4.038;2023-02-01T05:07:42;5.90;99.90
14511;DHT22;7341;50.930;4.038;2023-02-01T05:10:10;5.80;99.90
14511;DHT22;7341;50.930;4.038;2023-02-01T05:12:43;5.80;99.90
14511;DHT22;7341;50.930;4.038;2023-02-01T05:15:37;5.80;99.90
14511;DHT22;7341;50.930;4.038;2023-02-01T05:18:05;5.80;99.90
14511;DHT22;7341;50.930;4.038;2023-02-01T05:20:34;5.70;99.90
14511;DHT22;7341;50.930;4.038;2023-02-01T05:23:01;5.60;99.90
14511;DHT22;7341;50.930;4.038;2023-02-01T05:25:34;5.60;99.90
14511;DHT22;7341;50.930;4.038;2023-02-01T05:28:03;5.60;99.90
14511;DHT22;7341;50.930;4.038;2023-02-01T05:30:38;5.50;99.90
14511;DHT22;7341;50.930;4.038;2023-02-01T05:33:05;5.50;99.90
14511;DHT22;7341;50.930;4.038;2023-02-01T05:35:38;5.60;99.90
14511;DHT22;7341;50.930;4.038;2023-02-01T05:38:06;5.60;99.90
14511;DHT22;7341;50.930;4.038;2023-02-01T05:40:35;5.60;99.90
14511;DHT22;7341;50.930;4.038;2023-02-01T05:43:04;5.50;99.90
14511;DHT22;7341;50.930;4.038;2023-02-01T05:45:31;5.50;99.90
14511;DHT22;7341;50.930;4.038;2023-02-01T05:48:02;5.50;99.90
14511;DHT22;7341;50.930;4.038;2023-02-01T05:50:29;5.50;99.90
14511;DHT22;7341;50.930;4.038;2023-02-01T05:52:56;5.40;99.90
14511;DHT22;7341;50.930;4.038;2023-02-01T05:55:23;5.40;99.90
14511;DHT22;7341;50.930;4.038;2023-02-01T05:57:53;5.40;99.90
14511;DHT22;7341;50.930;4.038;2023-02-01T06:00:21;5.40;99.90
14511;DHT22;7341;50.930;4.038;2023-02-01T06:02:48;5.30;99.90
14511;DHT22;7341;50.930;4.038;2023-02-01T06:05:20;5.40;99.90
14511;DHT22;7341;50.930;4.038;2023-02-01T06:07:47;5.40;99.90
14511;DHT22;7341;50.930;4.038;2023-02-01T06:10:17;5.40;99.90
14511;DHT22;7341;50.930;4.038;2023-02-01T06:12:45;5.40;99.90
14511;DHT22;7341;50.930;4.038;2023-02-01T06:15:13;5.30;99.90
14511;DHT22;7341;50.930;4.038;2023-02-01T06:17:44;5.30;99.90
14511;DHT22;7341;50.930;4.038;2023-02-01T06:20:14;5.40;99.90
14511;DHT22;7341;50.930;4.038;2023-02-01T06:22:42;5.30;99.90
14511;DHT22;7341;50.930;4.038;2023-02-01T06:25:15;5.30;99.90
14511;DHT22;7341;50.930;4.038;2023-02-01T06:27:42;5.30;99.90
14511;DHT22;7341;50.930;4.038;2023-02-01T06:30:12;5.30;99.90
14511;DHT22;7341;50.930;4.038;2023-02-01T06:32:40;5.30;99.90
14511;DHT22;7341;50.930;4.038;2023-02-01T06:35:08;5.40;99.90
14511;DHT22;7341;50.930;4.038;2023-02-01T06:37:44;5.30;99.90
14511;DHT22;7341;50.930;4.038;2023-02-01T06:40:12;5.40;99.90
14511;DHT22;7341;50.930;4.038;2023-02-01T06:42:45;5.30;99.90
14511;DHT22;7341;50.930;4.038;2023-02-01T06:45:13;5.30;99.90
14511;DHT22;7341;50.930;4.038;2023-02-01T06:47:43;5.30;99.90
14511;DHT22;7341;50.930;4.038;2023-02-01T06:50:10;5.30;99.90
14511;DHT22;7341;50.930;4.038;2023-02-01T06:52:38;5.30;99.90
14511;DHT22;7341;50.930;4.038;2023-02-01T06:55:11;5.30;99.90
14511;DHT22;7341;50.930;4.038;2023-02-01T06:57:39;5.20;99.90
14511;DHT22;7341;50.930;4.038;2023-02-01T07:00:07;5.30;99.90
14511;DHT22;7341;50.930;4.038;2023-02-01T07:02:34;5.20;99.90
14511;DHT22;7341;50.930;4.038;2023-02-01T07:05:05;5.30;99.90
14511;DHT22;7341;50.930;4.038;2023-02-01T07:07:32;5.20;99.90
14511;DHT22;7341;50.930;4.038;2023-02-01T07:09:59;5.30;99.90
14511;DHT22;7341;50.930;4.038;2023-02-01T07:12:27;5.30;99.90
14511;DHT22;7341;50.930;4.038;2023-02-01T07:14:54;5.40;99.90
14511;DHT22;7341;50.930;4.038;2023-02-01T07:17:22;5.30;99.90
14511;DHT22;7341;50.930;4.038;2023-02-01T07:19:49;5.30;99.90
14511;DHT22;7341;50.930;4.038;2023-02-01T07:22:19;5.40;99.90
14511;DHT22;7341;50.930;4.038;2023-02-01T07:24:46;5.40;99.90
14511;DHT22;7341;50.930;4.038;2023-02-01T07:27:13;5.40;99.90
14511;DHT22;7341;50.930;4.038;2023-02-01T07:29:41;5.30;99.90
14511;DHT22;7341;50.930;4.038;2023-02-01T07:32:08;5.30;99.90
14511;DHT22;7341;50.930;4.038;2023-02-01T07:34:34;5.30;99.90
14511;DHT22;7341;50.930;4.038;2023-02-01T07:37:02;5.50;99.90
14511;DHT22;7341;50.930;4.038;2023-02-01T07:39:29;5.50;99.90
14511;DHT22;7341;50.930;4.038;2023-02-01T07:41:57;5.50;99.90
14511;DHT22;7341;50.930;4.038;2023-02-01T07:44:24;5.50;99.90
14511;DHT22;7341;50.930;4.038;2023-02-01T07:46:52;5.50;99.90
14511;DHT22;7341;50.930;4.038;2023-02-01T07:49:19;5.40;99.90
14511;DHT22;7341;50.930;4.038;2023-02-01T07:51:46;5.60;99.90
14511;DHT22;7341;50.930;4.038;2023-02-01T07:54:15;5.60;99.90
14511;DHT22;7341;50.930;4.038;2023-02-01T07:56:42;5.60;99.90
14511;DHT22;7341;50.930;4.038;2023-02-01T07:59:09;5.60;99.90
14511;DHT22;7341;50.930;4.038;2023-02-01T08:01:36;5.60;99.90
14511;DHT22;7341;50.930;4.038;2023-02-01T08:04:04;5.60;99.90
14511;DHT22;7341;50.930;4.038;2023-02-01T08:06:37;5.60;99.90
14511;DHT22;7341;50.930;4.038;2023-02-01T08:09:05;5.70;99.90
14511;DHT22;7341;50.930;4.038;2023-02-01T08:11:39;5.70;99.90
14511;DHT22;7341;50.930;4.038;2023-02-01T08:14:08;5.90;99.90
14511;DHT22;7341;50.930;4.038;2023-02-01T08:16:38;5.80;99.90
14511;DHT22;7341;50.930;4.038;2023-02-01T08:19:06;5.80;99.90
14511;DHT22;7341;50.930;4.038;2023-02-01T08:21:33;5.90;99.90
14511;DHT22;7341;50.930;4.038;2023-02-01T08:24:10;6.00;99.90
14511;DHT22;7341;50.930;4.038;2023-02-01T08:26:37;6.00;99.90
14511;DHT22;7341;50.930;4.038;2023-02-01T08:29:06;6.00;99.90
14511;DHT22;7341;50.930;4.038;2023-02-01T08:31:34;6.00;99.90
14511;DHT22;7341;50.930;4.038;2023-02-01T08:34:02;6.20;99.90
14511;DHT22;7341;50.930;4.038;2023-02-01T08:36:32;6.20;99.90
14511;DHT22;7341;50.930;4.038;2023-02-01T08:39:00;6.30;99.90
14511;DHT22;7341;50.930;4.038;2023-02-01T08:41:31;6.30;99.90
14511;DHT22;7341;50.930;4.038;2023-02-01T08:43:58;6.30;99.90
14511;DHT22;7341;50.930;4.038;2023-02-01T08:46:26;6.30;99.90
14511;DHT22;7341;50.930;4.038;2023-02-01T08:49:01;6.30;99.90
14511;DHT22;7341;50.930;4.038;2023-02-01T08:51:32;6.30;99.90
14511;DHT22;7341;50.930;4.038;2023-02-01T08:53:59;6.30;99.90
14511;DHT22;7341;50.930;4.038;2023-02-01T08:56:27;6.40;99.90
14511;DHT22;7341;50.930;4.038;2023-02-01T08:58:54;6.40;99.90
14511;DHT22;7341;50.930;4.038;2023-02-01T09:01:21;6.40;99.90
14511;DHT22;7341;50.930;4.038;2023-02-01T09:03:50;6.40;99.90
14511;DHT22;7341;50.930;4.038;2023-02-01T09:06:17;6.50;99.90
14511;DHT22;7341;50.930;4.038;2023-02-01T09:08:45;6.50;99.90
14511;DHT22;7341;50.930;4.038;2023-02-01T09:11:15;6.50;99.90
14511;DHT22;7341;50.930;4.038;2023-02-01T09:13:43;6.50;99.90
14511;DHT22;7341;50.930;4.038;2023-02-01T09:16:13;6.70;99.90
14511;DHT22;7341;50.930;4.038;2023-02-01T09:18:39;6.70;99.90
14511;DHT22;7341;50.930;4.038;2023-02-01T09:21:07;6.70;99.90
14511;DHT22;7341;50.930;4.038;2023-02-01T09:23:35;6.80;99.90
14511;DHT22;7341;50.930;4.038;2023-02-01T09:26:06;6.90;99.90
14511;DHT22;7341;50.930;4.038;2023-02-01T09:28:34;6.90;99.90
14511;DHT22;7341;50.930;4.038;2023-02-01T09:31:02;6.90;99.90
14511;DHT22;7341;50.930;4.038;2023-02-01T09:33:29;7.10;99.90
14511;DHT22;7341;50.930;4.038;2023-02-01T09:36:05;7.10;99.90
14511;DHT22;7341;50.930;4.038;2023-02-01T09:38:34;7.10;99.90
14511;DHT22;7341;50.930;4.038;2023-02-01T09:41:20;7.20;99.90
14511;DHT22;7341;50.930;4.038;2023-02-01T09:43:56;7.30;99.90
14511;DHT22;7341;50.930;4.038;2023-02-01T09:46:28;7.30;99.90
14511;DHT22;7341;50.930;4.038;2023-02-01T09:48:58;7.40;99.90
14511;DHT22;7341;50.930;4.038;2023-02-01T09:51:34;7.50;99.90
14511;DHT22;7341;50.930;4.038;2023-02-01T09:54:09;7.60;99.90
14511;DHT22;7341;50.930;4.038;2023-02-01T09:56:44;7.60;99.90
14511;DHT22;7341;50.930;4.038;2023-02-01T09:59:23;7.70;99.90
14511;DHT22;7341;50.930;4.038;2023-02-01T10:01:59;7.70;99.90
14511;DHT22;7341;50.930;4.038;2023-02-01T10:04:29;7.90;99.90
14511;DHT22;7341;50.930;4.038;2023-02-01T10:07:09;7.80;99.90
14511;DHT22;7341;50.930;4.038;2023-02-01T10:09:48;7.90;99.90
14511;DHT22;7341;50.930;4.038;2023-02-01T10:15:40;8.00;99.90
14511;DHT22;7341;50.930;4.038;2023-02-01T10:18:20;8.00;99.90
14511;DHT22;7341;50.930;4.038;2023-02-01T10:20:57;8.10;99.90
14511;DHT22;7341;50.930;4.038;2023-02-01T10:23:48;8.10;99.90
14511;DHT22;7341;50.930;4.038;2023-02-01T10:26:20;8.10;99.90
14511;DHT22;7341;50.930;4.038;2023-02-01T10:28:51;8.20;99.90
14511;DHT22;7341;50.930;4.038;2023-02-01T10:31:21;8.20;99.90
14511;DHT22;7341;50.930;4.038;2023-02-01T10:33:50;8.30;99.90
14511;DHT22;7341;50.930;4.038;2023-02-01T10:36:21;8.30;99.90
14511;DHT22;7341;50.930;4.038;2023-02-01T10:38:49;8.40;99.90
14511;DHT22;7341;50.930;4.038;2023-02-01T10:41:18;8.50;99.90
14511;DHT22;7341;50.930;4.038;2023-02-01T10:43:48;8.50;99.90
14511;DHT22;7341;50.930;4.038;2023-02-01T10:46:18;8.60;99.90
14511;DHT22;7341;50.930;4.038;2023-02-01T10:48:47;8.70;99.90
14511;DHT22;7341;50.930;4.038;2023-02-01T10:51:22;8.70;99.90
14511;DHT22;7341;50.930;4.038;2023-02-01T10:53:58;8.80;99.90
14511;DHT22;7341;50.930;4.038;2023-02-01T10:56:28;8.80;99.90
14511;DHT22;7341;50.930;4.038;2023-02-01T10:59:00;8.80;99.90
14511;DHT22;7341;50.930;4.038;2023-02-01T11:01:33;9.00;99.90
14511;DHT22;7341;50.930;4.038;2023-02-01T11:04:01;9.10;99.90
14511;DHT22;7341;50.930;4.038;2023-02-01T11:06:30;9.20;99.90
14511;DHT22;7341;50.930;4.038;2023-02-01T11:09:00;9.20;99.90
14511;DHT22;7341;50.930;4.038;2023-02-01T11:11:28;9.30;99.90
14511;DHT22;7341;50.930;4.038;2023-02-01T11:13:58;9.40;99.90
14511;DHT22;7341;50.930;4.038;2023-02-01T11:16:33;9.40;99.90
14511;DHT22;7341;50.930;4.038;2023-02-01T11:19:02;9.30;99.90
14511;DHT22;7341;50.930;4.038;2023-02-01T11:21:30;9.20;99.90
14511;DHT22;7341;50.930;4.038;2023-02-01T11:24:00;9.20;99.90
14511;DHT22;7341;50.930;4.038;2023-02-01T11:26:28;9.20;99.90
14511;DHT22;7341;50.930;4.038;2023-02-01T11:28:59;9.20;99.90
14511;DHT22;7341;50.930;4.038;2023-02-01T11:31:30;9.20;99.90
14511;DHT22;7341;50.930;4.038;2023-02-01T11:34:04;9.30;99.90
14511;DHT22;7341;50.930;4.038;2023-02-01T11:36:33;9.30;99.90
14511;DHT22;7341;50.930;4.038;2023-02-01T11:39:26;9.40;99.90
14511;DHT22;7341;50.930;4.038;2023-02-01T11:42:00;9.30;99.90
14511;DHT22;7341;50.930;4.038;2023-02-01T11:44:32;9.30;99.90
14511;DHT22;7341;50.930;4.038;2023-02-01T11:47:25;9.20;99.90
14511;DHT22;7341;50.930;4.038;2023-02-01T11:49:54;9.40;99.90
14511;DHT22;7341;50.930;4.038;2023-02-01T11:52:45;9.50;99.90
14511;DHT22;7341;50.930;4.038;2023-02-01T11:55:38;9.50;99.90
14511;DHT22;7341;50.930;4.038;2023-02-01T11:58:19;9.60;99.90
14511;DHT22;7341;50.930;4.038;2023-02-01T12:01:03;9.80;99.90
14511;DHT22;7341;50.930;4.038;2023-02-01T12:04:08;9.80;99.90
14511;DHT22;7341;50.930;4.038;2023-02-01T12:06:48;9.70;99.90
14511;DHT22;7341;50.930;4.038;2023-02-01T12:09:33;9.70;99.90
14511;DHT22;7341;50.930;4.038;2023-02-01T12:12:10;9.70;99.90
14511;DHT22;7341;50.930;4.038;2023-02-01T12:15:01;9.80;99.90
14511;DHT22;7341;50.930;4.038;2023-02-01T12:17:42;9.90;99.90
14511;DHT22;7341;50.930;4.038;2023-02-01T12:20:32;10.00;99.90
14511;DHT22;7341;50.930;4.038;2023-02-01T12:23:10;9.90;99.90
14511;DHT22;7341;50.930;4.038;2023-02-01T12:25:53;10.00;99.90
14511;DHT22;7341;50.930;4.038;2023-02-01T12:28:49;10.10;99.90
14511;DHT22;7341;50.930;4.038;2023-02-01T12:31:32;10.20;99.90
14511;DHT22;7341;50.930;4.038;2023-02-01T12:34:16;10.20;99.90
14511;DHT22;7341;50.930;4.038;2023-02-01T12:36:50;10.30;99.90
14511;DHT22;7341;50.930;4.038;2023-02-01T12:39:24;10.30;99.90
14511;DHT22;7341;50.930;4.038;2023-02-01T12:41:58;10.50;99.90
14511;DHT22;7341;50.930;4.038;2023-02-01T12:44:33;10.40;99.90
14511;DHT22;7341;50.930;4.038;2023-02-01T12:47:18;10.50;99.90
14511;DHT22;7341;50.930;4.038;2023-02-01T12:49:51;10.50;99.90
14511;DHT22;7341;50.930;4.038;2023-02-01T12:52:26;10.60;99.90
14511;DHT22;7341;50.930;4.038;2023-02-01T12:54:57;10.50;99.90
14511;DHT22;7341;50.930;4.038;2023-02-01T12:57:31;10.40;99.90
14511;DHT22;7341;50.930;4.038;2023-02-01T13:00:05;10.40;99.90
14511;DHT22;7341;50.930;4.038;2023-02-01T13:02:40;10.40;99.90
14511;DHT22;7341;50.930;4.038;2023-02-01T13:05:14;10.30;99.90
14511;DHT22;7341;50.930;4.038;2023-02-01T13:07:50;10.40;99.90
14511;DHT22;7341;50.930;4.038;2023-02-01T13:10:24;10.40;99.90
14511;DHT22;7341;50.930;4.038;2023-02-01T13:12:57;10.50;99.90
14511;DHT22;7341;50.930;4.038;2023-02-01T13:15:28;10.50;99.90
14511;DHT22;7341;50.930;4.038;2023-02-01T13:18:00;10.60;99.90
14511;DHT22;7341;50.930;4.038;2023-02-01T13:20:31;10.70;99.90
14511;DHT22;7341;50.930;4.038;2023-02-01T13:23:03;10.50;99.90
14511;DHT22;7341;50.930;4.038;2023-02-01T13:25:35;10.60;99.90
14511;DHT22;7341;50.930;4.038;2023-02-01T13:28:06;10.40;99.90
14511;DHT22;7341;50.930;4.038;2023-02-01T13:30:53;10.50;99.90
14511;DHT22;7341;50.930;4.038;2023-02-01T13:33:37;10.50;99.90
14511;DHT22;7341;50.930;4.038;2023-02-01T13:36:41;10.40;99.90
14511;DHT22;7341;50.930;4.038;2023-02-01T13:42:22;10.30;99.90
14511;DHT22;7341;50.930;4.038;2023-02-01T13:44:52;10.30;99.90
14511;DHT22;7341;50.930;4.038;2023-02-01T13:47:28;10.30;99.90
14511;DHT22;7341;50.930;4.038;2023-02-01T13:50:01;10.30;99.90
14511;DHT22;7341;50.930;4.038;2023-02-01T13:52:34;10.30;99.90
14511;DHT22;7341;50.930;4.038;2023-02-01T13:55:14;10.60;99.90
14511;DHT22;7341;50.930;4.038;2023-02-01T13:57:43;10.60;99.90
14511;DHT22;7341;50.930;4.038;2023-02-01T14:00:25;10.60;99.90
14511;DHT22;7341;50.930;4.038;2023-02-01T14:03:10;10.70;99.90
14511;DHT22;7341;50.930;4.038;2023-02-01T14:06:05;10.80;99.90
14511;DHT22;7341;50.930;4.038;2023-02-01T14:09:18;10.80;99.90
14511;DHT22;7341;50.930;4.038;2023-02-01T14:11:49;10.90;99.90
14511;DHT22;7341;50.930;4.038;2023-02-01T14:14:46;10.80;99.90
14511;DHT22;7341;50.930;4.038;2023-02-01T14:17:38;10.70;99.90
14511;DHT22;7341;50.930;4.038;2023-02-01T14:23:23;10.60;99.90
14511;DHT22;7341;50.930;4.038;2023-02-01T14:26:13;10.60;99.90
14511;DHT22;7341;50.930;4.038;2023-02-01T14:28:48;10.50;99.90
14511;DHT22;7341;50.930;4.038;2023-02-01T14:31:52;10.40;99.90
14511;DHT22;7341;50.930;4.038;2023-02-01T14:34:24;10.40;99.90
14511;DHT22;7341;50.930;4.038;2023-02-01T14:37:02;10.30;99.90
14511;DHT22;7341;50.930;4.038;2023-02-01T14:39:34;10.40;99.90
14511;DHT22;7341;50.930;4.038;2023-02-01T14:42:12;10.30;99.90
14511;DHT22;7341;50.930;4.038;2023-02-01T14:44:42;10.20;99.90
14511;DHT22;7341;50.930;4.038;2023-02-01T14:47:34;10.30;99.90
14511;DHT22;7341;50.930;4.038;2023-02-01T14:53:16;10.10;99.90
14511;DHT22;7341;50.930;4.038;2023-02-01T14:55:46;10.00;99.90
14511;DHT22;7341;50.930;4.038;2023-02-01T14:58:27;10.10;99.90
14511;DHT22;7341;50.930;4.038;2023-02-01T15:00:58;9.90;99.90
14511;DHT22;7341;50.930;4.038;2023-02-01T15:03:43;9.80;99.90
14511;DHT22;7341;50.930;4.038;2023-02-01T15:06:32;9.90;99.90
14511;DHT22;7341;50.930;4.038;2023-02-01T15:09:03;9.90;99.90
14511;DHT22;7341;50.930;4.038;2023-02-01T15:11:31;9.80;99.90
14511;DHT22;7341;50.930;4.038;2023-02-01T15:13:58;9.70;99.90
14511;DHT22;7341;50.930;4.038;2023-02-01T15:16:28;9.80;99.90
14511;DHT22;7341;50.930;4.038;2023-02-01T15:19:12;9.80;99.90
14511;DHT22;7341;50.930;4.038;2023-02-01T15:21:45;9.80;99.90
14511;DHT22;7341;50.930;4.038;2023-02-01T15:24:13;9.80;99.90
14511;DHT22;7341;50.930;4.038;2023-02-01T15:26:46;9.80;99.90
14511;DHT22;7341;50.930;4.038;2023-02-01T15:29:14;9.80;99.90
14511;DHT22;7341;50.930;4.038;2023-02-01T15:31:44;9.90;99.90
14511;DHT22;7341;50.930;4.038;2023-02-01T15:34:12;9.70;99.90
14511;DHT22;7341;50.930;4.038;2023-02-01T15:36:40;9.70;99.90
14511;DHT22;7341;50.930;4.038;2023-02-01T15:39:19;9.60;99.90
14511;DHT22;7341;50.930;4.038;2023-02-01T15:41:50;9.60;99.90
14511;DHT22;7341;50.930;4.038;2023-02-01T15:44:20;9.60;99.90
14511;DHT22;7341;50.930;4.038;2023-02-01T15:46:50;9.60;99.90
14511;DHT22;7341;50.930;4.038;2023-02-01T15:49:23;9.60;99.90
14511;DHT22;7341;50.930;4.038;2023-02-01T15:51:52;9.60;99.90
14511;DHT22;7341;50.930;4.038;2023-02-01T15:54:23;9.60;99.90
14511;DHT22;7341;50.930;4.038;2023-02-01T15:56:53;9.50;99.90
14511;DHT22;7341;50.930;4.038;2023-02-01T15:59:28;9.50;99.90
14511;DHT22;7341;50.930;4.038;2023-02-01T16:01:56;9.50;99.90
14511;DHT22;7341;50.930;4.038;2023-02-01T16:04:28;9.50;99.90
14511;DHT22;7341;50.930;4.038;2023-02-01T16:06:59;9.40;99.90
14511;DHT22;7341;50.930;4.038;2023-02-01T16:09:36;9.40;99.90
14511;DHT22;7341;50.930;4.038;2023-02-01T16:12:26;9.40;99.90
14511;DHT22;7341;50.930;4.038;2023-02-01T16:14:55;9.50;99.90
14511;DHT22;7341;50.930;4.038;2023-02-01T16:17:22;9.40;99.90
14511;DHT22;7341;50.930;4.038;2023-02-01T16:19:50;9.40;99.90
14511;DHT22;7341;50.930;4.038;2023-02-01T16:22:17;9.50;99.90
14511;DHT22;7341;50.930;4.038;2023-02-01T16:24:44;9.30;99.90
14511;DHT22;7341;50.930;4.038;2023-02-01T16:27:11;9.40;99.90
14511;DHT22;7341;50.930;4.038;2023-02-01T16:29:38;9.40;99.90
14511;DHT22;7341;50.930;4.038;2023-02-01T16:32:05;9.40;99.90
14511;DHT22;7341;50.930;4.038;2023-02-01T16:34:34;9.30;99.90
14511;DHT22;7341;50.930;4.038;2023-02-01T16:37:03;9.30;99.90
14511;DHT22;7341;50.930;4.038;2023-02-01T16:39:30;9.30;99.90
14511;DHT22;7341;50.930;4.038;2023-02-01T16:41:59;9.30;99.90
14511;DHT22;7341;50.930;4.038;2023-02-01T16:44:25;9.20;99.90
14511;DHT22;7341;50.930;4.038;2023-02-01T16:46:52;9.20;99.90
14511;DHT22;7341;50.930;4.038;2023-02-01T16:49:22;9.20;99.90
14511;DHT22;7341;50.930;4.038;2023-02-01T16:51:51;9.10;99.90